Time;durP1;ratioP1;P1;durP2;ratioP2;P2;SDS_P1;SDS_P2;PMS_P1;PMS_P2;Temp;Humidity;BMP_temperature;BMP_pressure;BME280_temperature;BME280_humidity;BME280_pressure;Samples;Min_cycle;Max_cycle;Signal;HPM_P1;HPM_P2
2021/06/18 00:00:58;;;;;;;11.37;8.60;;;26.30;57.90;;;;;;5072820;28;20433;-49
2021/06/18 00:03:25;;;;;;;9.40;8.50;;;26.30;57.90;;;;;;5072555;28;20473;-49
2021/06/18 00:05:52;;;;;;;11.70;8.83;;;26.20;57.90;;;;;;5072953;28;20917;-49
2021/06/18 00:08:19;;;;;;;9.87;8.87;;;26.20;58.00;;;;;;5085642;22;20569;-54
2021/06/18 00:10:45;;;;;;;10.03;8.77;;;26.20;58.00;;;;;;5052731;28;20431;-54
2021/06/18 00:13:12;;;;;;;10.20;9.10;;;26.10;58.10;;;;;;5052662;28;20445;-54
2021/06/18 00:15:39;;;;;;;9.10;8.30;;;26.10;58.20;;;;;;5052531;28;20423;-54
2021/06/18 00:18:06;;;;;;;9.43;8.63;;;26.10;58.30;;;;;;5051891;28;20450;-54
2021/06/18 00:20:34;;;;;;;9.07;8.27;;;26.10;58.40;;;;;;5052681;28;20448;-54
2021/06/18 00:23:00;;;;;;;8.87;8.07;;;26.10;58.50;;;;;;5052353;28;20426;-54
2021/06/18 00:25:27;;;;;;;12.13;8.57;;;26.00;58.50;;;;;;5052307;28;20480;-54
2021/06/18 00:27:56;;;;;;;9.70;8.70;;;26.00;58.60;;;;;;5052125;28;20964;-54
2021/06/18 00:30:23;;;;;;;10.30;9.30;;;25.90;58.70;;;;;;5051957;28;20572;-53
2021/06/18 00:32:50;;;;;;;11.53;8.80;;;25.90;58.90;;;;;;5033987;28;20488;-53
2021/06/18 00:35:16;;;;;;;9.70;8.80;;;25.90;58.90;;;;;;5033856;28;20813;-54
2021/06/18 00:37:44;;;;;;;9.20;8.50;;;25.80;59.00;;;;;;5033730;28;20472;-54
2021/06/18 00:40:12;;;;;;;9.90;9.10;;;25.90;59.20;;;;;;5051650;28;20431;-54
2021/06/18 00:42:38;;;;;;;11.07;9.10;;;25.80;59.30;;;;;;5052000;28;20449;-54
2021/06/18 00:45:06;;;;;;;9.73;8.83;;;25.70;59.30;;;;;;5051648;28;20998;-53
2021/06/18 00:47:34;;;;;;;10.47;9.67;;;25.70;59.40;;;;;;5051910;28;20446;-53
2021/06/18 00:50:01;;;;;;;9.07;8.17;;;25.70;59.50;;;;;;5051632;28;20982;-53
2021/06/18 00:52:27;;;;;;;10.50;9.50;;;25.70;59.70;;;;;;5051579;28;20523;-54
2021/06/18 00:54:55;;;;;;;11.70;9.43;;;25.70;60.40;;;;;;5051559;28;20445;-53
2021/06/18 00:57:22;;;;;;;10.63;8.97;;;25.70;59.80;;;;;;5051514;28;20903;-54
2021/06/18 00:59:49;;;;;;;10.30;9.40;;;25.60;59.90;;;;;;5051362;28;20458;-54
2021/06/18 01:02:16;;;;;;;9.57;8.70;;;25.60;60.00;;;;;;5051571;28;20446;-54
2021/06/18 01:04:43;;;;;;;9.90;9.00;;;25.60;60.00;;;;;;5051485;28;20846;-53
2021/06/18 01:07:17;;;;;;;9.70;8.90;;;25.50;60.00;;;;;;5051417;28;20430;-54
2021/06/18 01:10:00;;;;;;;9.43;8.73;;;25.50;60.20;;;;;;5051275;28;20521;-53
2021/06/18 01:12:32;;;;;;;10.13;9.23;;;25.50;60.30;;;;;;5051569;28;20929;-52
2021/06/18 01:15:05;;;;;;;10.20;9.30;;;25.40;60.40;;;;;;5051419;28;20447;-52
2021/06/18 01:17:41;;;;;;;9.53;8.77;;;25.40;60.40;;;;;;5051267;28;20455;-52
2021/06/18 01:20:39;;;;;;;10.20;9.40;;;25.40;60.60;;;;;;5050341;28;20523;-52
2021/06/18 01:23:20;;;;;;;10.93;9.30;;;25.40;60.90;;;;;;5050630;28;20434;-52
2021/06/18 01:25:58;;;;;;;10.73;9.73;;;25.40;61.00;;;;;;5050675;28;20478;-52
2021/06/18 01:28:40;;;;;;;10.20;9.30;;;25.30;61.10;;;;;;5050300;28;20452;-53
2021/06/18 01:31:08;;;;;;;11.67;10.63;;;25.20;62.20;;;;;;5050665;28;20449;-53
2021/06/18 01:33:37;;;;;;;11.00;9.93;;;25.20;61.60;;;;;;5050500;28;20431;-52
2021/06/18 01:36:08;;;;;;;11.47;10.40;;;25.20;61.60;;;;;;5050472;28;20469;-52
2021/06/18 01:38:39;;;;;;;10.80;9.80;;;25.20;61.90;;;;;;5050483;28;20453;-53
2021/06/18 01:41:09;;;;;;;10.43;9.53;;;25.10;62.10;;;;;;5050287;28;20441;-53
2021/06/18 01:43:38;;;;;;;10.90;10.00;;;25.10;62.10;;;;;;5050369;28;20435;-53
2021/06/18 01:46:08;;;;;;;10.33;9.43;;;25.00;62.30;;;;;;5050342;28;20484;-53
2021/06/18 01:48:36;;;;;;;10.57;9.50;;;25.00;62.50;;;;;;5049928;28;20446;-52
2021/06/18 01:51:03;;;;;;;9.83;8.97;;;25.00;62.60;;;;;;5050350;28;20439;-53
2021/06/18 01:53:32;;;;;;;10.90;9.70;;;25.00;62.80;;;;;;5054099;28;20440;-53
2021/06/18 01:55:59;;;;;;;10.47;9.57;;;24.90;62.80;;;;;;5057046;28;20777;-53
2021/06/18 01:58:29;;;;;;;10.50;9.40;;;25.00;63.20;;;;;;5056299;28;20457;-53
2021/06/18 02:00:57;;;;;;;11.13;10.13;;;24.90;63.40;;;;;;5056850;28;20483;-52
2021/06/18 02:03:27;;;;;;;11.70;10.60;;;24.90;63.70;;;;;;5056900;28;20437;-52
2021/06/18 02:05:58;;;;;;;11.67;10.70;;;24.70;63.60;;;;;;5056786;28;20477;-52
2021/06/18 02:08:27;;;;;;;10.17;9.37;;;25.40;64.50;;;;;;5056268;28;20480;-52
2021/06/18 02:10:54;;;;;;;11.33;10.23;;;24.80;64.20;;;;;;5056991;28;20434;-53
2021/06/18 02:13:22;;;;;;;10.90;10.03;;;24.80;64.40;;;;;;5056742;28;20441;-53
2021/06/18 02:15:49;;;;;;;11.80;10.90;;;24.70;64.50;;;;;;5055768;28;20932;-53
2021/06/18 02:18:21;;;;;;;11.40;10.50;;;24.80;64.80;;;;;;5056193;28;20481;-53
2021/06/18 02:20:48;;;;;;;11.33;10.43;;;24.70;65.00;;;;;;5056896;28;20500;-53
2021/06/18 02:23:16;;;;;;;11.43;10.43;;;24.70;65.00;;;;;;5038833;28;20452;-53
2021/06/18 02:25:44;;;;;;;15.00;12.43;;;24.60;65.10;;;;;;5056715;28;20873;-53
2021/06/18 02:28:12;;;;;;;13.90;10.60;;;24.50;65.30;;;;;;5056478;28;20813;-53
2021/06/18 02:30:38;;;;;;;11.80;10.80;;;24.60;65.70;;;;;;5056647;28;20442;-53
2021/06/18 02:33:11;;;;;;;10.67;9.70;;;24.30;65.50;;;;;;5056702;28;20930;-53
2021/06/18 02:35:39;;;;;;;11.53;10.53;;;24.50;65.90;;;;;;5056654;28;20444;-53
2021/06/18 02:38:06;;;;;;;11.77;10.70;;;24.50;66.00;;;;;;5056388;28;20454;-53
2021/06/18 02:40:33;;;;;;;12.00;10.90;;;24.50;66.30;;;;;;5056686;28;20430;-53
2021/06/18 02:42:59;;;;;;;11.60;10.60;;;24.50;66.50;;;;;;5056686;28;20449;-53
2021/06/18 02:45:26;;;;;;;10.30;9.50;;;24.40;66.60;;;;;;5056705;28;20480;-53
2021/06/18 02:48:01;;;;;;;11.60;10.43;;;24.50;66.90;;;;;;5056725;28;20543;-53
2021/06/18 02:50:37;;;;;;;10.93;9.93;;;24.50;67.00;;;;;;5056824;28;20459;-53
2021/06/18 02:53:17;;;;;;;11.03;10.03;;;24.40;67.10;;;;;;5056682;28;20436;-53
2021/06/18 02:55:48;;;;;;;10.10;9.20;;;24.40;67.30;;;;;;5056583;28;20524;-53
2021/06/18 02:58:20;;;;;;;10.17;9.20;;;24.30;67.30;;;;;;5055986;28;20460;-53
2021/06/18 03:00:48;;;;;;;12.30;11.20;;;24.30;67.30;;;;;;5056444;28;20437;-53
2021/06/18 03:03:20;;;;;;;15.30;11.23;;;24.30;67.50;;;;;;5056223;28;20453;-53
2021/06/18 03:05:48;;;;;;;13.10;11.17;;;24.30;67.70;;;;;;5052334;28;20852;-53
2021/06/18 03:08:19;;;;;;;12.50;11.50;;;24.30;67.80;;;;;;5052977;28;20831;-53
2021/06/18 03:10:51;;;;;;;15.10;12.20;;;24.30;68.10;;;;;;5053346;28;20454;-53
2021/06/18 03:13:20;;;;;;;12.00;10.90;;;24.30;68.20;;;;;;5053228;28;20884;-53
2021/06/18 03:15:48;;;;;;;12.70;11.40;;;24.30;68.40;;;;;;5053254;28;20942;-53
2021/06/18 03:18:18;;;;;;;16.03;11.47;;;24.30;68.40;;;;;;5052664;28;20562;-53
2021/06/18 03:20:47;;;;;;;12.40;11.10;;;24.30;68.50;;;;;;5052782;28;20435;-53
2021/06/18 03:23:16;;;;;;;12.73;11.43;;;24.10;68.50;;;;;;5052867;28;20431;-53
2021/06/18 03:25:44;;;;;;;11.60;10.70;;;24.30;68.90;;;;;;5052852;28;20823;-53
2021/06/18 03:28:12;;;;;;;13.77;12.40;;;24.30;68.90;;;;;;5052670;28;20451;-53
2021/06/18 03:30:39;;;;;;;11.80;10.70;;;24.30;69.00;;;;;;5052990;28;20445;-53
2021/06/18 03:33:07;;;;;;;13.13;10.37;;;24.30;69.00;;;;;;5053160;28;20490;-53
2021/06/18 03:35:35;;;;;;;12.53;11.30;;;24.30;69.00;;;;;;5052604;28;20445;-53
2021/06/18 03:38:03;;;;;;;12.83;11.70;;;24.10;68.90;;;;;;5052584;28;20541;-53
2021/06/18 03:40:31;;;;;;;13.37;12.20;;;24.30;69.20;;;;;;5052757;28;20472;-53
2021/06/18 03:42:59;;;;;;;12.53;11.30;;;24.30;69.30;;;;;;5052449;28;20436;-53
2021/06/18 03:45:26;;;;;;;12.40;11.40;;;24.30;69.40;;;;;;5034553;28;20512;-53
2021/06/18 03:47:54;;;;;;;12.10;11.00;;;24.40;69.50;;;;;;5052543;28;20456;-53
2021/06/18 03:50:23;;;;;;;13.43;11.87;;;24.30;69.40;;;;;;5052006;28;20445;-53
2021/06/18 03:52:50;;;;;;;13.70;11.53;;;24.40;69.50;;;;;;5052331;28;20610;-53
2021/06/18 03:55:17;;;;;;;15.37;11.40;;;24.40;69.50;;;;;;5052122;28;20511;-53
2021/06/18 03:57:50;;;;;;;13.50;12.00;;;24.40;69.40;;;;;;5053155;28;20687;-53
2021/06/18 04:00:18;;;;;;;15.27;11.50;;;24.10;69.10;;;;;;5052127;28;20440;-53
2021/06/18 04:02:46;;;;;;;12.40;11.00;;;24.60;69.60;;;;;;5052210;28;20430;-53
2021/06/18 04:05:15;;;;;;;11.93;10.73;;;24.70;69.80;;;;;;5052037;28;20426;-53
2021/06/18 04:07:46;;;;;;;10.90;10.00;;;24.80;69.20;;;;;;5051961;28;20966;-53
2021/06/18 04:10:14;;;;;;;13.67;11.47;;;24.90;68.90;;;;;;5051759;28;20438;-53
2021/06/18 04:12:42;;;;;;;15.93;11.53;;;25.00;68.70;;;;;;5052198;28;20445;-53
2021/06/18 04:15:12;;;;;;;12.77;11.33;;;25.10;68.40;;;;;;5052017;28;20532;-53
2021/06/18 04:17:40;;;;;;;12.93;11.07;;;25.20;68.10;;;;;;5051288;28;21000;-53
2021/06/18 04:20:08;;;;;;;12.07;10.87;;;25.40;67.80;;;;;;5051461;28;20466;-53
2021/06/18 04:22:35;;;;;;;11.63;10.53;;;25.50;67.40;;;;;;5051887;28;20426;-53
2021/06/18 04:25:03;;;;;;;14.57;11.23;;;25.60;66.90;;;;;;5052031;28;20504;-53
2021/06/18 04:27:30;;;;;;;11.30;10.40;;;25.50;66.30;;;;;;5051680;28;20492;-53
2021/06/18 04:29:57;;;;;;;11.90;10.80;;;25.90;66.20;;;;;;5051286;28;20531;-53
2021/06/18 04:32:25;;;;;;;12.63;11.50;;;26.00;65.90;;;;;;5051061;28;20447;-53
2021/06/18 04:34:51;;;;;;;13.03;11.90;;;25.90;65.50;;;;;;5051540;28;20532;-53
2021/06/18 04:37:18;;;;;;;14.80;13.03;;;26.10;65.30;;;;;;5051767;28;20469;-53
2021/06/18 04:39:45;;;;;;;14.23;11.07;;;26.20;65.00;;;;;;5033067;28;20538;-53
2021/06/18 04:42:11;;;;;;;12.87;11.67;;;26.40;64.90;;;;;;5051264;28;20523;-53
2021/06/18 04:44:38;;;;;;;12.00;10.90;;;26.50;64.60;;;;;;5051307;28;20434;-53
2021/06/18 04:47:05;;;;;;;11.70;10.50;;;26.60;64.40;;;;;;5051110;28;20475;-53
2021/06/18 04:49:33;;;;;;;12.33;11.03;;;26.70;64.10;;;;;;5051165;28;20438;-53
2021/06/18 04:52:00;;;;;;;11.30;10.30;;;26.80;63.80;;;;;;5051476;28;20813;-53
2021/06/18 04:54:28;;;;;;;11.60;10.53;;;26.20;62.90;;;;;;5050984;28;20434;-53
2021/06/18 04:56:54;;;;;;;12.30;11.10;;;26.90;63.30;;;;;;5051142;28;20438;-53
2021/06/18 04:59:21;;;;;;;12.77;10.40;;;27.00;63.10;;;;;;5050540;28;20776;-54
2021/06/18 05:01:48;;;;;;;13.47;11.03;;;27.20;62.90;;;;;;5033225;28;20943;-53
2021/06/18 05:04:15;;;;;;;13.93;10.80;;;27.10;62.40;;;;;;5051313;28;20440;-53
2021/06/18 05:06:43;;;;;;;11.37;10.37;;;27.40;62.40;;;;;;5050882;28;20513;-53
2021/06/18 05:09:10;;;;;;;11.23;10.20;;;27.40;62.20;;;;;;5050484;28;20463;-53
2021/06/18 05:11:36;;;;;;;10.70;9.60;;;27.40;62.10;;;;;;5051226;28;20435;-53
2021/06/18 05:14:03;;;;;;;10.20;9.30;;;27.50;61.00;;;;;;5050540;28;20484;-53
2021/06/18 05:16:30;;;;;;;13.30;9.70;;;27.60;61.80;;;;;;5051345;28;20434;-53
2021/06/18 05:18:56;;;;;;;10.37;9.37;;;27.50;61.60;;;;;;5050650;28;20466;-53
2021/06/18 05:21:23;;;;;;;11.40;10.40;;;27.60;61.60;;;;;;5050569;28;20439;-53
2021/06/18 05:23:51;;;;;;;12.07;10.93;;;27.60;61.40;;;;;;5050321;28;20426;-54
2021/06/18 05:26:18;;;;;;;11.93;10.83;;;27.70;61.30;;;;;;5050109;28;20470;-53
2021/06/18 05:28:45;;;;;;;11.63;10.57;;;27.70;61.20;;;;;;5049352;28;20447;-54
2021/06/18 05:31:12;;;;;;;13.83;11.00;;;27.80;61.10;;;;;;5050308;28;20477;-54
2021/06/18 05:33:38;;;;;;;10.40;9.50;;;27.90;60.90;;;;;;5050936;28;20430;-54
2021/06/18 05:36:05;;;;;;;11.70;10.70;;;28.00;60.80;;;;;;5050944;28;20423;-54
2021/06/18 05:38:32;;;;;;;11.87;10.50;;;28.00;60.40;;;;;;5049884;28;20722;-54
2021/06/18 05:41:00;;;;;;;15.03;10.30;;;28.00;60.10;;;;;;5050003;28;20968;-54
2021/06/18 05:43:27;;;;;;;12.30;10.17;;;28.20;60.00;;;;;;5050276;28;20466;-54
2021/06/18 05:45:54;;;;;;;13.30;10.17;;;28.30;59.90;;;;;;5050129;28;20573;-54
2021/06/18 05:48:20;;;;;;;17.80;9.50;;;28.10;59.60;;;;;;5050396;28;20461;-54
2021/06/18 05:50:47;;;;;;;15.87;10.10;;;28.40;59.60;;;;;;5050894;28;20437;-54
2021/06/18 05:53:14;;;;;;;13.67;9.30;;;28.50;59.50;;;;;;5051132;28;20469;-54
2021/06/18 05:55:41;;;;;;;10.93;9.93;;;28.50;59.20;;;;;;5049485;28;20499;-54
2021/06/18 05:58:09;;;;;;;11.87;8.77;;;28.70;59.00;;;;;;5049761;28;20501;-54
2021/06/18 06:00:35;;;;;;;9.20;8.30;;;28.80;58.80;;;;;;5050457;28;20457;-54
2021/06/18 06:03:02;;;;;;;10.30;9.23;;;28.80;58.70;;;;;;5050196;28;20440;-54
2021/06/18 06:05:29;;;;;;;14.17;8.60;;;28.80;58.30;;;;;;5050219;28;20837;-54
2021/06/18 06:07:56;;;;;;;9.90;8.80;;;28.90;58.00;;;;;;5068726;22;20939;-48
2021/06/18 06:10:22;;;;;;;13.10;7.90;;;29.00;57.80;;;;;;5070725;28;20909;-48
2021/06/18 06:12:49;;;;;;;14.53;7.80;;;29.10;57.60;;;;;;5070642;28;20433;-52
2021/06/18 06:15:17;;;;;;;15.70;7.97;;;28.90;57.10;;;;;;5071190;28;20521;-49
2021/06/18 06:17:44;;;;;;;13.20;8.07;;;29.00;56.70;;;;;;5071140;28;20441;-49
2021/06/18 06:20:12;;;;;;;9.40;8.03;;;29.30;56.60;;;;;;5070890;28;20439;-48
2021/06/18 06:22:39;;;;;;;8.57;7.00;;;29.30;56.50;;;;;;5070611;28;20503;-48
2021/06/18 06:25:06;;;;;;;10.00;7.23;;;29.40;56.50;;;;;;5071074;28;20445;-49
2021/06/18 06:27:32;;;;;;;10.23;6.60;;;29.40;55.80;;;;;;5070262;28;20477;-48
2021/06/18 06:29:59;;;;;;;6.20;5.70;;;29.50;55.50;;;;;;5070614;28;20421;-50
2021/06/18 06:32:27;;;;;;;12.20;6.90;;;29.50;55.00;;;;;;5052738;28;20540;-49
2021/06/18 06:34:57;;;;;;;9.80;6.37;;;29.60;55.00;;;;;;5070637;28;20449;-48
2021/06/18 06:37:24;;;;;;;9.70;6.67;;;29.60;54.60;;;;;;5070384;28;20452;-48
2021/06/18 06:39:51;;;;;;;10.07;6.60;;;29.60;54.50;;;;;;5072385;28;20489;-48
2021/06/18 06:42:18;;;;;;;8.77;5.77;;;29.60;54.40;;;;;;5073985;28;20488;-49
2021/06/18 06:44:44;;;;;;;11.50;5.80;;;29.70;54.20;;;;;;5074132;28;20433;-48
2021/06/18 06:47:11;;;;;;;7.70;6.13;;;29.70;53.90;;;;;;5056000;28;20484;-49
2021/06/18 06:49:40;;;;;;;9.77;5.57;;;29.70;53.70;;;;;;5073668;28;20447;-52
2021/06/18 06:52:07;;;;;;;10.37;6.13;;;29.70;53.40;;;;;;5055816;28;20871;-48
2021/06/18 06:54:34;;;;;;;6.50;5.73;;;29.70;53.40;;;;;;5073819;28;20425;-48
2021/06/18 06:57:00;;;;;;;9.73;6.00;;;29.80;53.30;;;;;;5074230;28;20991;-49
2021/06/18 06:59:27;;;;;;;7.27;5.93;;;29.70;53.00;;;;;;5073144;28;20972;-49
2021/06/18 07:01:54;;;;;;;8.23;6.37;;;29.70;53.00;;;;;;5073659;28;20516;-51
2021/06/18 07:04:21;;;;;;;7.83;6.00;;;29.70;52.90;;;;;;5073990;28;20518;-48
2021/06/18 07:06:49;;;;;;;11.33;5.40;;;29.70;52.90;;;;;;5073712;28;20483;-48
2021/06/18 07:09:16;;;;;;;8.17;6.20;;;29.70;52.80;;;;;;5055279;28;20473;-48
2021/06/18 07:11:43;;;;;;;5.63;5.13;;;29.70;52.90;;;;;;5073780;28;20507;-49
2021/06/18 07:14:10;;;;;;;9.93;5.33;;;29.70;52.70;;;;;;5073634;28;20529;-48
2021/06/18 07:16:36;;;;;;;12.20;5.67;;;29.70;52.20;;;;;;5074090;28;20516;-51
2021/06/18 07:19:57;;;;;;;10.80;6.13;;;29.70;52.20;;;;;;5073810;28;20453;-48
2021/06/18 07:22:25;;;;;;;10.20;5.13;;;29.70;51.90;;;;;;5073773;28;20451;-50
2021/06/18 07:24:52;;;;;;;8.40;5.20;;;29.70;51.90;;;;;;5074001;28;20430;-50
2021/06/18 07:27:20;;;;;;;6.30;4.80;;;29.70;51.80;;;;;;5073476;28;20472;-49
2021/06/18 07:29:47;;;;;;;8.30;5.57;;;29.70;51.80;;;;;;5073625;28;20468;-51
2021/06/18 07:32:14;;;;;;;6.03;5.43;;;29.80;52.00;;;;;;5073768;28;20460;-49
2021/06/18 07:34:40;;;;;;;15.73;7.43;;;29.80;51.90;;;;;;5073521;28;20517;-48
2021/06/18 07:37:07;;;;;;;6.33;5.73;;;29.90;51.90;;;;;;5073321;28;20422;-49
2021/06/18 07:39:35;;;;;;;8.37;5.80;;;29.90;51.70;;;;;;5073165;28;20808;-48
2021/06/18 07:42:02;;;;;;;11.40;5.67;;;29.90;51.60;;;;;;5073216;28;20960;-48
2021/06/18 07:44:29;;;;;;;12.90;5.30;;;30.00;51.50;;;;;;5073227;28;20433;-49
2021/06/18 07:46:55;;;;;;;8.50;4.50;;;30.00;51.10;;;;;;5073179;28;20488;-49
2021/06/18 07:49:24;;;;;;;7.87;5.40;;;30.00;51.00;;;;;;5072841;28;20466;-48
2021/06/18 07:51:50;;;;;;;9.93;5.30;;;30.10;50.80;;;;;;5071974;28;20969;-48
2021/06/18 07:54:17;;;;;;;9.20;5.00;;;30.10;50.50;;;;;;5073110;28;20434;-49
2021/06/18 07:56:47;;;;;;;6.43;4.27;;;30.10;50.30;;;;;;5072915;28;20457;-49
2021/06/18 07:59:13;;;;;;;9.03;5.27;;;30.10;50.00;;;;;;5072422;28;20449;-49
2021/06/18 08:01:40;;;;;;;6.70;4.90;;;30.10;50.50;;;;;;5073349;28;20858;-49
2021/06/18 08:04:07;;;;;;;7.50;4.60;;;30.10;50.10;;;;;;5072959;28;20491;-49
2021/06/18 08:06:35;;;;;;;5.17;4.60;;;30.20;49.90;;;;;;5072808;28;20442;-51
2021/06/18 08:09:01;;;;;;;13.60;4.70;;;30.20;49.40;;;;;;5072169;28;20526;-50
2021/06/18 08:11:41;;;;;;;5.93;4.10;;;30.20;49.00;;;;;;5073004;28;20928;-48
2021/06/18 08:14:16;;;;;;;10.97;4.53;;;30.20;48.80;;;;;;5073026;28;20806;-48
2021/06/18 08:16:43;;;;;;;9.50;4.53;;;30.30;48.90;;;;;;5072593;28;20799;-48
2021/06/18 08:19:09;;;;;;;9.30;5.10;;;30.30;48.40;;;;;;5071939;28;20481;-49
2021/06/18 08:21:36;;;;;;;9.50;5.60;;;30.40;48.60;;;;;;5073275;28;20466;-49
2021/06/18 08:24:03;;;;;;;6.53;4.53;;;30.50;48.60;;;;;;5072888;28;20434;-49
2021/06/18 08:26:30;;;;;;;6.00;4.37;;;30.50;48.40;;;;;;5072508;28;20429;-50
2021/06/18 08:28:57;;;;;;;5.53;3.90;;;30.50;47.70;;;;;;5072128;28;20453;-48
2021/06/18 08:31:25;;;;;;;6.83;4.17;;;30.50;47.80;;;;;;5072839;28;20431;-49
2021/06/18 08:33:51;;;;;;;5.97;4.97;;;30.50;47.50;;;;;;5072385;28;20425;-49
2021/06/18 08:36:18;;;;;;;10.07;4.10;;;30.50;47.20;;;;;;5072473;28;20541;-49
2021/06/18 08:38:45;;;;;;;9.07;4.60;;;30.50;46.80;;;;;;5072263;28;20448;-48
2021/06/18 08:41:12;;;;;;;4.87;3.97;;;30.50;46.40;;;;;;5072132;28;20430;-48
2021/06/18 08:43:40;;;;;;;5.97;3.87;;;30.50;46.50;;;;;;5072884;28;20522;-47
2021/06/18 08:46:07;;;;;;;12.57;5.83;;;30.60;46.60;;;;;;5072586;28;20434;-49
2021/06/18 08:48:35;;;;;;;9.30;3.80;;;30.70;46.00;;;;;;5071422;28;20504;-48
2021/06/18 08:51:03;;;;;;;10.60;4.30;;;30.70;45.90;;;;;;5072089;28;20981;-48
2021/06/18 08:53:34;;;;;;;4.40;4.00;;;30.70;45.70;;;;;;5053989;28;21024;-48
2021/06/18 08:56:01;;;;;;;6.97;4.23;;;30.70;45.60;;;;;;5072137;28;20842;-48
2021/06/18 08:58:28;;;;;;;5.67;5.03;;;30.70;45.90;;;;;;5071434;28;20753;-47
2021/06/18 09:00:55;;;;;;;5.70;4.00;;;30.70;46.20;;;;;;5071913;28;20429;-49
2021/06/18 09:03:42;;;;;;;8.40;4.60;;;30.80;46.40;;;;;;5071249;28;20868;-47
2021/06/18 09:06:28;;;;;;;8.63;4.20;;;30.80;46.20;;;;;;5053638;28;20556;-52
2021/06/18 09:09:18;;;;;;;8.30;4.47;;;30.80;45.80;;;;;;5071140;28;20505;-49
2021/06/18 09:11:47;;;;;;;7.20;4.30;;;30.80;46.00;;;;;;5071465;28;20519;-47
2021/06/18 09:14:26;;;;;;;6.87;4.20;;;30.80;46.10;;;;;;5071507;28;20440;-49
2021/06/18 09:17:20;;;;;;;6.93;4.20;;;30.90;46.20;;;;;;5071933;28;20429;-49
2021/06/18 09:19:52;;;;;;;4.80;4.20;;;30.90;45.80;;;;;;5071189;28;20495;-51
2021/06/18 09:22:21;;;;;;;6.90;4.20;;;30.90;44.90;;;;;;5071612;28;20434;-48
2021/06/18 09:24:56;;;;;;;7.83;4.90;;;30.90;44.50;;;;;;5071735;28;20429;-49
2021/06/18 09:27:30;;;;;;;7.13;4.07;;;30.90;44.90;;;;;;5071237;28;20473;-48
2021/06/18 09:29:57;;;;;;;9.83;4.40;;;31.00;44.80;;;;;;5071285;28;20425;-47
2021/06/18 09:32:23;;;;;;;9.37;4.50;;;31.00;44.00;;;;;;5071609;28;20807;-48
2021/06/18 09:34:59;;;;;;;9.67;4.27;;;31.00;43.50;;;;;;5071372;28;20735;-47
2021/06/18 09:37:31;;;;;;;5.60;4.23;;;31.00;43.60;;;;;;5070441;28;20441;-48
2021/06/18 09:40:06;;;;;;;6.60;3.97;;;31.00;43.80;;;;;;5071023;28;20453;-51
2021/06/18 09:42:33;;;;;;;4.40;4.10;;;31.10;43.70;;;;;;5071284;28;20440;-48
2021/06/18 09:45:03;;;;;;;4.40;3.70;;;31.00;43.40;;;;;;5071226;28;20425;-48
2021/06/18 09:47:30;;;;;;;7.80;4.30;;;31.10;43.30;;;;;;5071106;28;20473;-49
2021/06/18 09:49:58;;;;;;;4.60;4.20;;;31.10;43.40;;;;;;5070915;28;20434;-48
2021/06/18 09:52:26;;;;;;;6.97;4.17;;;31.20;43.70;;;;;;5071457;28;20941;-49
2021/06/18 09:54:54;;;;;;;5.80;4.00;;;31.20;43.20;;;;;;5072386;28;20459;-49
2021/06/18 09:57:23;;;;;;;9.17;4.23;;;31.20;43.20;;;;;;5070898;28;20440;-49
2021/06/18 09:59:57;;;;;;;9.20;4.10;;;31.30;43.20;;;;;;5071274;28;20516;-49
2021/06/18 10:02:38;;;;;;;4.80;4.40;;;31.30;43.20;;;;;;5053124;28;20461;-51
2021/06/18 10:05:08;;;;;;;8.00;4.13;;;31.30;43.50;;;;;;5071334;28;20438;-50
2021/06/18 10:07:35;;;;;;;5.77;4.70;;;31.30;43.50;;;;;;5071047;28;20466;-49
2021/06/18 10:10:05;;;;;;;6.40;4.50;;;31.30;43.50;;;;;;5070838;28;20796;-50
2021/06/18 10:12:32;;;;;;;6.00;4.07;;;31.30;43.70;;;;;;5071008;28;20433;-51
2021/06/18 10:15:05;;;;;;;6.17;5.57;;;31.30;43.80;;;;;;5055219;28;20514;-49
2021/06/18 10:17:32;;;;;;;6.93;4.33;;;31.40;44.00;;;;;;5075281;28;20434;-49
2021/06/18 10:19:59;;;;;;;8.40;4.73;;;31.40;43.90;;;;;;5074599;28;20875;-49
2021/06/18 10:22:28;;;;;;;7.00;4.30;;;31.40;44.10;;;;;;5074793;28;20707;-49
2021/06/18 10:25:00;;;;;;;10.83;5.03;;;31.50;44.10;;;;;;5074862;28;20433;-48
2021/06/18 10:27:32;;;;;;;7.67;5.50;;;31.50;44.20;;;;;;5074471;28;20545;-47
2021/06/18 10:29:58;;;;;;;5.40;4.37;;;31.50;43.80;;;;;;5074292;28;20436;-50
2021/06/18 10:32:34;;;;;;;6.03;4.23;;;31.50;43.90;;;;;;5074279;28;20851;-48
2021/06/18 10:35:06;;;;;;;6.30;4.57;;;31.50;43.70;;;;;;5074379;28;20455;-48
2021/06/18 10:37:35;;;;;;;7.53;4.70;;;31.60;43.90;;;;;;5074109;28;20463;-48
2021/06/18 10:40:12;;;;;;;5.33;4.53;;;31.60;43.70;;;;;;5073452;28;20463;-49
2021/06/18 10:42:53;;;;;;;4.90;4.50;;;31.70;43.60;;;;;;5074244;28;21007;-49
2021/06/18 10:45:20;;;;;;;7.73;4.50;;;31.70;43.60;;;;;;5073274;28;20476;-48
2021/06/18 10:47:58;;;;;;;5.43;4.40;;;31.70;43.30;;;;;;5073923;28;20485;-50
2021/06/18 10:50:48;;;;;;;8.60;4.50;;;31.80;43.10;;;;;;5073899;28;20528;-49
2021/06/18 10:53:21;;;;;;;5.83;4.33;;;31.80;42.90;;;;;;5074322;28;20968;-51
2021/06/18 10:55:49;;;;;;;5.40;4.17;;;31.80;42.90;;;;;;5074246;28;20430;-51
2021/06/18 10:58:16;;;;;;;10.93;4.50;;;31.80;42.90;;;;;;5073140;28;20449;-51
2021/06/18 11:00:42;;;;;;;4.50;4.10;;;31.80;42.40;;;;;;5073976;28;20428;-50
2021/06/18 11:03:09;;;;;;;8.60;4.30;;;31.80;41.80;;;;;;5074160;28;20437;-52
2021/06/18 11:05:38;;;;;;;4.73;4.17;;;31.80;41.40;;;;;;5075991;28;20521;-50
2021/06/18 11:08:21;;;;;;;6.17;4.23;;;31.80;41.10;;;;;;5073437;28;20573;-50
2021/06/18 11:10:48;;;;;;;5.93;4.00;;;31.80;40.50;;;;;;5074502;28;20788;-50
2021/06/18 11:13:18;;;;;;;5.33;3.90;;;31.90;40.50;;;;;;5073847;28;20701;-50
2021/06/18 11:15:46;;;;;;;8.33;4.00;;;31.90;40.60;;;;;;5073830;28;20441;-50
2021/06/18 11:18:18;;;;;;;14.00;4.27;;;31.90;40.10;;;;;;5073140;28;20462;-50
2021/06/18 11:21:00;;;;;;;5.23;4.07;;;31.90;39.80;;;;;;5073605;28;20715;-50
2021/06/18 11:23:34;;;;;;;7.80;3.47;;;31.90;39.80;;;;;;5055649;28;20476;-50
2021/06/18 11:26:06;;;;;;;5.43;4.20;;;31.90;40.50;;;;;;5072770;28;20425;-50
2021/06/18 11:28:41;;;;;;;4.70;4.10;;;31.90;39.70;;;;;;5073239;28;20484;-50
2021/06/18 11:31:12;;;;;;;4.83;3.70;;;31.90;39.70;;;;;;5073842;28;20525;-50
2021/06/18 11:33:52;;;;;;;4.37;3.97;;;31.90;39.60;;;;;;5073699;28;21082;-51
2021/06/18 11:36:45;;;;;;;8.43;4.23;;;31.90;39.20;;;;;;5073518;28;20440;-50
2021/06/18 11:39:19;;;;;;;5.93;3.60;;;32.00;38.80;;;;;;5046971;28;20527;-49
2021/06/18 11:41:57;;;;;;;7.07;4.63;;;32.00;38.90;;;;;;5073076;28;20453;-51
2021/06/18 11:44:26;;;;;;;6.47;4.60;;;32.00;38.70;;;;;;5073445;28;20831;-48
2021/06/18 11:46:55;;;;;;;5.87;3.90;;;32.10;38.80;;;;;;5073371;28;20901;-50
2021/06/18 11:49:25;;;;;;;7.93;3.63;;;32.10;38.50;;;;;;5072558;28;20573;-50
2021/06/18 11:51:53;;;;;;;7.00;3.93;;;32.10;37.30;;;;;;5073537;28;20434;-50
2021/06/18 11:54:30;;;;;;;6.27;3.80;;;32.10;37.20;;;;;;5073691;28;20938;-49
2021/06/18 11:57:06;;;;;;;6.63;3.67;;;32.10;37.30;;;;;;5073133;28;20441;-49
2021/06/18 11:59:33;;;;;;;8.37;4.40;;;32.10;37.10;;;;;;5072634;28;20502;-50
2021/06/18 12:02:16;;;;;;;4.50;3.87;;;32.20;37.10;;;;;;5072539;28;20437;-49
2021/06/18 12:04:43;;;;;;;3.73;3.30;;;32.20;37.00;;;;;;5072643;28;20436;-50
2021/06/18 12:07:10;;;;;;;7.47;3.90;;;32.20;37.20;;;;;;5072714;28;20430;-50
2021/06/18 12:09:44;;;;;;;6.23;4.60;;;32.20;37.40;;;;;;5054356;28;21031;-51
2021/06/18 12:12:11;;;;;;;6.17;4.33;;;32.30;37.30;;;;;;5072778;28;20545;-51
2021/06/18 12:14:40;;;;;;;6.00;4.33;;;32.30;37.30;;;;;;5072355;28;20513;-52
2021/06/18 12:17:07;;;;;;;5.80;5.30;;;32.30;37.10;;;;;;5073100;28;20461;-50
2021/06/18 12:19:37;;;;;;;4.70;4.30;;;32.30;37.20;;;;;;5054358;28;20972;-51
2021/06/18 12:22:06;;;;;;;8.27;5.00;;;32.40;37.30;;;;;;5072493;28;20421;-51
2021/06/18 12:24:37;;;;;;;10.63;6.47;;;32.30;37.40;;;;;;5072431;28;20466;-51
2021/06/18 12:27:07;;;;;;;5.50;4.63;;;32.30;37.50;;;;;;5072079;28;20430;-51
2021/06/18 12:29:37;;;;;;;5.93;4.27;;;32.40;37.70;;;;;;5071974;28;20473;-50
2021/06/18 12:32:04;;;;;;;7.53;4.37;;;32.40;37.90;;;;;;5072747;28;20530;-51
2021/06/18 12:34:31;;;;;;;11.40;5.30;;;32.40;37.70;;;;;;5072025;28;20444;-52
2021/06/18 12:37:00;;;;;;;5.47;4.40;;;32.30;37.60;;;;;;5071855;28;20811;-49
2021/06/18 12:39:27;;;;;;;4.13;3.73;;;32.40;37.50;;;;;;5072008;28;20838;-50
2021/06/18 12:41:53;;;;;;;5.13;3.87;;;32.30;37.60;;;;;;5072396;28;20896;-50
2021/06/18 12:44:32;;;;;;;4.20;3.80;;;32.30;38.40;;;;;;5072023;28;20437;-49
2021/06/18 12:47:00;;;;;;;6.90;3.70;;;32.30;37.10;;;;;;5071794;28;20460;-48
2021/06/18 12:49:29;;;;;;;9.30;4.90;;;32.30;37.30;;;;;;5071160;28;20481;-48